Time;durP1;ratioP1;P1;durP2;ratioP2;P2;SDS_P1;SDS_P2;PMS_P1;PMS_P2;Temp;Humidity;BMP_temperature;BMP_pressure;BME280_temperature;BME280_humidity;BME280_pressure;Samples;Min_cycle;Max_cycle;Signal;HPM_P1;HPM_P2
2023/04/20 00:00:01;;;;;;;15.52;6.50;;;5.70;99.90;;;;;;5117210;27;20386;-47
2023/04/20 00:02:26;;;;;;;14.75;6.75;;;5.70;99.90;;;;;;5109267;28;20054;-47
2023/04/20 00:04:52;;;;;;;13.73;6.57;;;5.70;99.90;;;;;;5109371;28;20151;-48
2023/04/20 00:07:18;;;;;;;21.48;7.35;;;5.70;99.90;;;;;;5109518;28;20038;-50
2023/04/20 00:09:44;;;;;;;17.13;6.70;;;5.80;99.90;;;;;;5108941;28;20103;-47
2023/04/20 00:12:09;;;;;;;14.25;6.93;;;5.70;99.90;;;;;;5108882;28;20023;-49
2023/04/20 00:14:35;;;;;;;11.05;6.20;;;5.70;99.90;;;;;;5109007;28;20051;-47
2023/04/20 00:17:01;;;;;;;15.10;6.25;;;5.70;99.90;;;;;;5109076;28;20031;-48
2023/04/20 00:19:27;;;;;;;17.40;7.55;;;5.70;99.90;;;;;;5108856;28;20544;-48
2023/04/20 00:21:53;;;;;;;16.33;7.55;;;5.70;99.90;;;;;;5109017;28;20027;-48
2023/04/20 00:24:18;;;;;;;12.70;7.40;;;5.80;99.90;;;;;;5108760;28;20032;-48
2023/04/20 00:26:44;;;;;;;15.02;7.20;;;5.80;99.90;;;;;;5090419;28;20190;-47
2023/04/20 00:29:09;;;;;;;14.10;7.25;;;5.80;99.90;;;;;;5109701;27;20114;-47
2023/04/20 00:31:35;;;;;;;14.68;7.80;;;5.90;99.90;;;;;;5096756;28;20027;-48
2023/04/20 00:34:00;;;;;;;13.95;6.47;;;5.80;99.90;;;;;;5090315;28;20100;-48
2023/04/20 00:36:26;;;;;;;15.20;6.97;;;5.80;99.90;;;;;;5108612;28;20023;-47
2023/04/20 00:38:51;;;;;;;11.63;6.60;;;5.80;99.90;;;;;;5108692;28;20023;-49
2023/04/20 00:41:17;;;;;;;15.68;6.88;;;5.80;99.90;;;;;;5108218;28;20024;-50
2023/04/20 00:43:53;;;;;;;14.23;6.93;;;5.80;99.90;;;;;;5108292;28;20027;-48
2023/04/20 00:46:20;;;;;;;21.50;7.28;;;5.80;99.90;;;;;;5108336;28;20047;-47
2023/04/20 00:48:46;;;;;;;20.92;8.18;;;5.90;99.90;;;;;;5108321;28;20267;-47
2023/04/20 00:51:12;;;;;;;22.95;7.10;;;5.90;99.90;;;;;;5108151;28;20508;-47
2023/04/20 00:53:38;;;;;;;15.45;6.57;;;5.90;99.90;;;;;;5108270;28;20020;-47
2023/04/20 00:56:03;;;;;;;12.18;6.85;;;5.90;99.90;;;;;;5108561;28;20034;-49
2023/04/20 00:58:29;;;;;;;16.83;7.20;;;6.00;99.90;;;;;;5088967;28;20020;-49
2023/04/20 01:00:55;;;;;;;17.05;7.60;;;6.00;99.90;;;;;;5116035;27;20027;-47
2023/04/20 01:03:21;;;;;;;15.10;6.93;;;6.00;99.90;;;;;;5108095;28;20490;-47
2023/04/20 01:05:46;;;;;;;16.60;7.60;;;6.00;99.90;;;;;;5108496;28;20080;-47
2023/04/20 01:08:12;;;;;;;18.15;6.95;;;6.00;99.90;;;;;;5089772;28;20035;-48
2023/04/20 01:10:37;;;;;;;18.38;7.22;;;6.00;99.90;;;;;;5089478;28;20039;-47
2023/04/20 01:13:03;;;;;;;18.23;8.30;;;6.00;99.90;;;;;;5107730;28;20412;-47
2023/04/20 01:15:29;;;;;;;17.25;7.72;;;6.00;99.90;;;;;;5108056;28;20023;-47
2023/04/20 01:17:56;;;;;;;15.63;7.60;;;6.00;99.90;;;;;;5107777;28;20512;-48
2023/04/20 01:20:22;;;;;;;20.38;8.30;;;6.00;99.90;;;;;;5107577;28;20026;-47
2023/04/20 01:22:49;;;;;;;16.40;7.68;;;6.00;99.90;;;;;;5107870;28;20123;-48
2023/04/20 01:25:16;;;;;;;16.80;7.75;;;6.00;99.90;;;;;;5107591;28;20039;-48
2023/04/20 01:27:43;;;;;;;17.67;7.72;;;6.00;99.90;;;;;;5107419;28;20023;-48
2023/04/20 01:30:09;;;;;;;17.55;8.68;;;6.00;99.90;;;;;;5115127;27;20416;-48
2023/04/20 01:32:35;;;;;;;16.65;7.38;;;6.00;99.90;;;;;;5107512;28;20103;-47
2023/04/20 01:35:02;;;;;;;16.20;7.60;;;6.00;99.90;;;;;;5107563;28;20469;-47
2023/04/20 01:37:27;;;;;;;16.80;7.75;;;6.10;99.90;;;;;;5107273;28;20020;-48
2023/04/20 01:39:53;;;;;;;15.82;8.43;;;6.00;99.90;;;;;;5107014;28;20362;-47
2023/04/20 01:42:18;;;;;;;17.42;7.85;;;6.00;99.90;;;;;;5107235;28;20103;-48
2023/04/20 01:44:44;;;;;;;17.17;7.50;;;5.90;99.90;;;;;;5107556;28;20027;-47
2023/04/20 01:47:10;;;;;;;15.07;7.75;;;6.00;99.90;;;;;;5089135;28;20532;-48
2023/04/20 01:49:35;;;;;;;25.08;8.48;;;6.00;99.90;;;;;;5107721;28;20054;-48
2023/04/20 01:52:01;;;;;;;20.75;8.52;;;6.00;99.90;;;;;;5107626;28;20116;-48
2023/04/20 01:54:26;;;;;;;16.23;7.40;;;6.00;99.90;;;;;;5107782;28;20023;-47
2023/04/20 01:56:52;;;;;;;13.05;7.20;;;6.00;99.90;;;;;;5089372;28;20031;-48
2023/04/20 01:59:17;;;;;;;15.77;8.30;;;6.00;99.90;;;;;;5109767;27;20020;-48
2023/04/20 02:01:43;;;;;;;18.55;8.60;;;6.10;99.90;;;;;;5113166;27;20038;-48
2023/04/20 02:04:08;;;;;;;26.23;9.80;;;6.10;99.90;;;;;;5107660;28;20034;-47
2023/04/20 02:06:34;;;;;;;12.63;7.43;;;6.00;99.90;;;;;;5089176;28;20027;-47
2023/04/20 02:08:59;;;;;;;21.10;8.80;;;6.10;99.90;;;;;;5106323;28;20027;-47
2023/04/20 02:11:25;;;;;;;17.15;8.68;;;6.10;99.90;;;;;;5107015;28;20038;-47
2023/04/20 02:13:50;;;;;;;24.23;7.75;;;6.00;99.90;;;;;;5088761;28;20030;-48
2023/04/20 02:16:17;;;;;;;13.48;7.88;;;6.00;99.90;;;;;;5106594;28;20435;-49
2023/04/20 02:18:44;;;;;;;18.73;8.75;;;6.10;99.90;;;;;;5108083;28;20517;-51
2023/04/20 02:21:10;;;;;;;22.27;8.57;;;6.00;99.90;;;;;;5107296;28;20047;-48
2023/04/20 02:23:36;;;;;;;20.90;8.90;;;6.10;99.90;;;;;;5107644;28;20032;-47
2023/04/20 02:26:01;;;;;;;21.92;8.90;;;6.10;99.90;;;;;;5107472;28;20031;-47
2023/04/20 02:28:27;;;;;;;23.45;8.77;;;6.10;99.90;;;;;;5107126;28;20030;-45
2023/04/20 02:30:52;;;;;;;16.85;8.30;;;6.10;99.90;;;;;;5114730;28;20027;-44
2023/04/20 02:33:19;;;;;;;24.83;8.27;;;6.10;99.90;;;;;;5106903;28;20079;-43
2023/04/20 02:35:45;;;;;;;14.50;7.80;;;6.10;99.90;;;;;;5107038;28;20034;-47
2023/04/20 02:38:11;;;;;;;20.65;8.73;;;6.00;99.90;;;;;;5106584;28;20016;-47
2023/04/20 02:40:36;;;;;;;18.90;8.13;;;6.00;99.90;;;;;;5106728;28;20072;-47
2023/04/20 02:43:02;;;;;;;19.17;8.68;;;6.10;99.90;;;;;;5087797;28;20032;-47
2023/04/20 02:45:27;;;;;;;15.95;7.28;;;6.10;99.90;;;;;;5107086;28;20020;-49
2023/04/20 02:47:53;;;;;;;30.10;9.02;;;6.10;99.90;;;;;;5106325;28;20503;-47
2023/04/20 02:50:18;;;;;;;17.08;8.32;;;6.20;99.90;;;;;;5106376;28;20023;-47
2023/04/20 02:52:44;;;;;;;17.15;7.85;;;6.10;99.90;;;;;;5109275;28;20629;-47
2023/04/20 02:55:09;;;;;;;21.25;9.43;;;6.20;99.90;;;;;;5106463;28;20551;-48
2023/04/20 02:57:35;;;;;;;18.00;8.68;;;6.20;99.90;;;;;;5106447;28;20027;-47
2023/04/20 03:00:01;;;;;;;16.00;8.70;;;6.20;99.90;;;;;;5114468;28;20027;-47
2023/04/20 03:02:26;;;;;;;19.45;8.45;;;6.20;99.90;;;;;;5121194;27;20019;-47
2023/04/20 03:04:52;;;;;;;18.73;8.85;;;6.30;99.90;;;;;;5127116;28;20106;-47
2023/04/20 03:07:17;;;;;;;22.35;9.23;;;6.20;99.90;;;;;;5127032;27;20099;-47
2023/04/20 03:09:43;;;;;;;18.50;8.73;;;6.20;99.90;;;;;;5127210;28;20110;-46
2023/04/20 03:12:08;;;;;;;18.17;8.95;;;6.20;99.90;;;;;;5126640;28;20066;-47
2023/04/20 03:14:35;;;;;;;16.98;8.57;;;6.30;99.90;;;;;;5127463;27;20031;-48
2023/04/20 03:17:00;;;;;;;16.95;8.43;;;6.30;99.90;;;;;;5127589;28;20076;-47
2023/04/20 03:19:26;;;;;;;18.67;8.90;;;6.30;99.90;;;;;;5127725;27;20019;-47
2023/04/20 03:21:51;;;;;;;17.48;8.77;;;6.30;99.90;;;;;;5130247;27;20019;-47
2023/04/20 03:24:18;;;;;;;17.02;8.15;;;6.30;99.90;;;;;;5131261;27;20055;-47
2023/04/20 03:26:43;;;;;;;18.50;8.15;;;6.30;99.90;;;;;;5131223;27;20031;-47
2023/04/20 03:29:09;;;;;;;20.38;9.38;;;6.20;99.90;;;;;;5124640;27;20039;-47
2023/04/20 03:31:34;;;;;;;20.50;8.70;;;6.30;99.90;;;;;;5130384;27;20019;-46
2023/04/20 03:34:00;;;;;;;16.40;9.07;;;6.20;99.90;;;;;;5130846;27;20031;-46
2023/04/20 03:36:27;;;;;;;14.57;8.60;;;6.20;99.90;;;;;;5131001;27;20155;-46
2023/04/20 03:38:52;;;;;;;16.30;8.48;;;6.30;99.90;;;;;;5130954;27;20019;-47
2023/04/20 03:41:18;;;;;;;17.88;8.63;;;6.30;99.90;;;;;;5124880;27;20536;-48
2023/04/20 03:43:44;;;;;;;21.63;9.15;;;6.30;99.90;;;;;;5110355;27;20220;-48
2023/04/20 03:46:09;;;;;;;15.35;8.65;;;6.30;99.90;;;;;;5110016;28;20031;-48
2023/04/20 03:48:35;;;;;;;16.02;8.63;;;6.30;99.90;;;;;;5109820;28;20031;-46
2023/04/20 03:51:00;;;;;;;16.77;9.30;;;6.30;99.90;;;;;;5103477;27;20020;-47
2023/04/20 03:53:27;;;;;;;17.88;8.80;;;6.40;99.90;;;;;;5119688;27;20095;-47
2023/04/20 03:55:53;;;;;;;16.48;8.35;;;6.40;99.90;;;;;;5091928;27;20019;-47
2023/04/20 03:58:19;;;;;;;16.35;8.77;;;6.40;99.90;;;;;;5109176;28;20026;-47
2023/04/20 04:00:45;;;;;;;18.60;8.75;;;6.40;99.90;;;;;;5108805;27;20084;-49
2023/04/20 04:03:10;;;;;;;20.30;8.27;;;6.40;99.90;;;;;;5109291;28;20107;-47
2023/04/20 04:05:36;;;;;;;17.42;8.05;;;6.40;99.90;;;;;;5109417;28;20030;-47
2023/04/20 04:08:02;;;;;;;16.50;9.00;;;6.30;99.90;;;;;;5109081;28;20661;-47
2023/04/20 04:10:27;;;;;;;18.10;9.02;;;6.30;99.90;;;;;;5090375;28;20459;-47
2023/04/20 04:12:53;;;;;;;18.52;8.98;;;6.40;99.90;;;;;;5090559;28;20016;-47
2023/04/20 04:15:18;;;;;;;18.88;8.05;;;6.40;99.90;;;;;;5090860;28;20020;-46
2023/04/20 04:17:44;;;;;;;20.10;8.85;;;6.40;99.90;;;;;;5090554;28;20023;-48
2023/04/20 04:20:11;;;;;;;18.00;9.02;;;6.40;99.90;;;;;;5107783;28;20108;-47
2023/04/20 04:22:36;;;;;;;15.68;8.57;;;6.40;99.90;;;;;;5105259;28;20026;-46
2023/04/20 04:25:02;;;;;;;18.50;9.18;;;6.40;99.90;;;;;;5089458;28;20032;-47
2023/04/20 04:27:33;;;;;;;15.07;8.95;;;6.40;99.90;;;;;;5107293;28;20027;-46
2023/04/20 04:29:59;;;;;;;;;;;6.40;99.90;;;;;;5108432;27;20020;-46
2023/04/20 04:32:25;;;;;;;18.45;9.50;;;6.30;99.90;;;;;;5106175;28;19920;-47
2023/04/20 04:34:51;;;;;;;19.02;9.00;;;6.30;99.90;;;;;;5107292;28;20308;-47
2023/04/20 04:37:17;;;;;;;15.50;8.32;;;6.30;99.90;;;;;;5107097;28;20315;-47
2023/04/20 04:39:43;;;;;;;14.45;8.65;;;6.30;99.90;;;;;;5107194;28;20019;-47
2023/04/20 04:42:09;;;;;;;20.15;8.98;;;6.30;99.90;;;;;;5106894;28;20081;-47
2023/04/20 04:44:34;;;;;;;20.75;8.95;;;6.30;99.90;;;;;;5107190;28;20438;-47
2023/04/20 04:47:02;;;;;;;20.02;9.73;;;6.40;99.90;;;;;;5107427;28;20035;-47
2023/04/20 04:49:28;;;;;;;22.70;9.25;;;6.50;99.90;;;;;;5106870;28;20036;-47
2023/04/20 04:51:54;;;;;;;24.40;10.75;;;6.40;99.90;;;;;;5104459;28;20546;-48
2023/04/20 04:54:19;;;;;;;15.80;9.57;;;6.40;99.90;;;;;;5108328;28;20028;-49
2023/04/20 04:56:45;;;;;;;21.40;9.63;;;6.50;99.90;;;;;;5108747;28;20027;-50
2023/04/20 04:59:10;;;;;;;18.23;9.25;;;6.50;99.90;;;;;;5108818;27;20020;-48
2023/04/20 05:01:36;;;;;;;22.85;9.98;;;6.40;99.90;;;;;;5114355;27;20030;-48
2023/04/20 05:04:01;;;;;;;15.95;8.80;;;6.50;99.90;;;;;;5123869;27;20051;-47
2023/04/20 05:06:27;;;;;;;14.02;8.45;;;6.50;99.90;;;;;;5089922;28;20075;-47
2023/04/20 05:08:52;;;;;;;17.98;9.45;;;6.40;99.90;;;;;;5107856;28;20097;-48
2023/04/20 05:11:18;;;;;;;15.02;8.55;;;6.50;99.90;;;;;;5107882;28;20027;-47
2023/04/20 05:13:43;;;;;;;19.90;10.27;;;6.50;99.90;;;;;;5107983;28;20031;-47
2023/04/20 05:16:09;;;;;;;19.00;10.50;;;6.50;99.90;;;;;;5108327;28;20080;-48
2023/04/20 05:18:35;;;;;;;21.25;10.32;;;6.50;99.90;;;;;;5107356;28;20032;-49
2023/04/20 05:21:00;;;;;;;16.40;10.07;;;6.50;99.90;;;;;;5107578;28;20018;-48
2023/04/20 05:23:26;;;;;;;20.27;9.85;;;6.60;99.90;;;;;;5107674;28;20059;-48
2023/04/20 05:25:51;;;;;;;17.13;10.38;;;6.60;99.90;;;;;;5107639;28;20234;-47
2023/04/20 05:28:17;;;;;;;16.85;10.63;;;6.70;99.90;;;;;;5107673;28;20038;-48
2023/04/20 05:30:43;;;;;;;17.80;10.32;;;6.60;99.90;;;;;;5107195;28;20543;-48
2023/04/20 05:33:08;;;;;;;20.73;10.15;;;6.70;99.90;;;;;;5107583;28;20453;-50
2023/04/20 05:35:34;;;;;;;19.02;10.32;;;6.60;99.90;;;;;;5107979;27;20032;-47
2023/04/20 05:38:02;;;;;;;20.15;10.68;;;6.60;99.90;;;;;;5124294;27;20030;-48
2023/04/20 05:40:28;;;;;;;23.42;11.30;;;6.60;99.90;;;;;;5117163;27;20016;-49
2023/04/20 05:42:53;;;;;;;18.60;10.90;;;6.60;99.90;;;;;;5109091;27;20027;-47
2023/04/20 05:45:19;;;;;;;17.08;10.52;;;6.70;99.90;;;;;;5090987;28;20057;-48
2023/04/20 05:47:54;;;;;;;18.48;11.00;;;6.80;99.90;;;;;;5109170;27;20488;-48
2023/04/20 05:50:24;;;;;;;21.30;10.80;;;7.00;99.90;;;;;;5109433;27;20023;-48
2023/04/20 05:52:50;;;;;;;18.63;10.93;;;7.00;99.90;;;;;;5096780;27;20126;-47
2023/04/20 05:55:17;;;;;;;17.08;10.15;;;7.10;99.90;;;;;;5097665;28;20066;-48
2023/04/20 05:57:42;;;;;;;22.23;12.35;;;7.10;99.90;;;;;;5104251;27;20027;-50
2023/04/20 06:00:11;;;;;;;16.75;10.38;;;7.10;99.90;;;;;;5110318;27;20027;-47
2023/04/20 06:02:36;;;;;;;21.65;11.65;;;7.10;99.90;;;;;;5120178;27;20491;-48
2023/04/20 06:05:02;;;;;;;18.30;11.00;;;7.10;99.90;;;;;;5099633;28;20032;-50
2023/04/20 06:07:27;;;;;;;23.25;12.00;;;7.10;99.90;;;;;;5121277;27;20023;-47
2023/04/20 06:09:53;;;;;;;26.17;12.05;;;7.10;99.90;;;;;;5110420;27;20039;-46
2023/04/20 06:12:19;;;;;;;19.73;10.98;;;7.10;99.90;;;;;;5111168;27;20027;-47
2023/04/20 06:14:44;;;;;;;24.38;12.23;;;7.20;99.90;;;;;;5111188;27;20019;-48
2023/04/20 06:17:10;;;;;;;21.92;11.82;;;7.20;99.90;;;;;;5109092;28;20028;-47
2023/04/20 06:19:35;;;;;;;21.85;12.05;;;7.20;99.90;;;;;;5104472;28;20041;-47
2023/04/20 06:22:06;;;;;;;24.13;12.48;;;7.30;99.90;;;;;;5107927;28;20023;-49
2023/04/20 06:24:31;;;;;;;26.50;12.68;;;7.30;99.90;;;;;;5109845;28;20404;-48
2023/04/20 06:26:57;;;;;;;24.63;11.45;;;7.30;99.90;;;;;;5110032;28;20138;-47
2023/04/20 06:29:23;;;;;;;22.27;12.68;;;7.40;99.90;;;;;;5108507;28;20024;-47
2023/04/20 06:31:48;;;;;;;20.67;11.77;;;7.60;99.90;;;;;;5109245;28;20019;-47
2023/04/20 06:34:15;;;;;;;19.13;11.80;;;7.70;99.90;;;;;;5088691;28;20031;-47
2023/04/20 06:36:43;;;;;;;16.02;11.13;;;7.70;99.90;;;;;;5107431;28;20054;-46
2023/04/20 06:39:10;;;;;;;19.00;11.73;;;7.80;99.90;;;;;;5108829;28;20491;-48
2023/04/20 06:41:37;;;;;;;20.33;11.02;;;7.90;99.90;;;;;;5127372;27;20126;-49
2023/04/20 06:44:03;;;;;;;18.13;10.57;;;8.00;99.90;;;;;;5127747;27;20030;-48
2023/04/20 06:46:28;;;;;;;26.60;11.25;;;8.10;99.90;;;;;;5127432;27;20023;-47
2023/04/20 06:48:53;;;;;;;16.90;10.95;;;8.40;99.90;;;;;;5112645;28;20477;-45
2023/04/20 06:51:19;;;;;;;14.38;11.00;;;8.50;99.90;;;;;;5106013;28;20027;-45
2023/04/20 06:53:44;;;;;;;20.08;11.07;;;8.60;99.90;;;;;;5106522;28;20100;-47
2023/04/20 06:56:11;;;;;;;15.90;10.20;;;8.70;99.90;;;;;;5109400;28;20048;-45
2023/04/20 06:58:36;;;;;;;18.42;10.93;;;8.70;99.90;;;;;;5110676;28;20094;-37
2023/04/20 07:01:02;;;;;;;15.57;11.02;;;8.80;99.90;;;;;;5110848;27;20110;-36
2023/04/20 07:03:27;;;;;;;19.48;11.60;;;8.90;99.90;;;;;;5110442;28;20016;-37
2023/04/20 07:05:53;;;;;;;21.27;11.02;;;9.10;99.90;;;;;;5111021;27;20492;-37
2023/04/20 07:08:19;;;;;;;14.38;10.05;;;9.20;99.90;;;;;;5130933;27;20492;-37
2023/04/20 07:10:44;;;;;;;14.02;10.25;;;9.00;99.90;;;;;;5087763;28;20120;-37
2023/04/20 07:13:10;;;;;;;16.65;10.05;;;9.00;99.90;;;;;;5107570;28;20078;-37
2023/04/20 07:15:35;;;;;;;16.40;10.65;;;8.80;99.90;;;;;;5091863;28;20497;-37
2023/04/20 07:18:01;;;;;;;17.40;10.25;;;8.90;99.90;;;;;;5111620;27;20023;-37
2023/04/20 07:20:27;;;;;;;13.27;9.45;;;8.80;99.90;;;;;;5110088;28;20027;-37
2023/04/20 07:22:52;;;;;;;15.98;10.90;;;8.90;99.90;;;;;;5109662;28;20171;-37
2023/04/20 07:25:18;;;;;;;17.58;10.52;;;8.90;99.90;;;;;;5109818;28;20457;-37
2023/04/20 07:27:44;;;;;;;17.45;10.45;;;8.90;99.90;;;;;;5109731;28;20362;-38
2023/04/20 07:30:09;;;;;;;14.68;9.45;;;9.00;99.90;;;;;;5109520;28;20041;-37
2023/04/20 07:32:35;;;;;;;13.52;9.05;;;9.10;99.90;;;;;;5110185;27;20614;-37
2023/04/20 07:35:02;;;;;;;12.98;8.55;;;9.20;99.90;;;;;;5109926;28;20028;-37
2023/04/20 07:37:28;;;;;;;13.90;9.25;;;9.40;99.90;;;;;;5109972;28;20084;-37
2023/04/20 07:39:54;;;;;;;13.93;8.82;;;9.50;99.90;;;;;;5127120;27;20491;-37
2023/04/20 07:42:20;;;;;;;12.45;8.40;;;9.50;99.90;;;;;;5130244;27;20031;-38
2023/04/20 07:44:46;;;;;;;13.00;8.43;;;9.50;99.90;;;;;;5103998;27;20565;-38
2023/04/20 07:47:12;;;;;;;11.00;7.97;;;9.60;99.90;;;;;;5109235;27;20141;-38
2023/04/20 07:49:39;;;;;;;11.05;8.40;;;9.70;99.90;;;;;;5110340;27;20509;-38
2023/04/20 07:52:05;;;;;;;11.80;7.97;;;9.80;99.90;;;;;;5110189;27;20091;-38
2023/04/20 07:54:31;;;;;;;12.73;8.90;;;9.90;99.90;;;;;;5110344;27;20035;-38
2023/04/20 07:56:57;;;;;;;21.30;10.25;;;10.00;99.90;;;;;;5109198;28;20019;-38
2023/04/20 07:59:23;;;;;;;13.68;9.15;;;10.10;99.90;;;;;;5108619;28;20076;-38
2023/04/20 08:01:49;;;;;;;12.10;8.80;;;10.20;99.90;;;;;;5090571;28;20503;-38
2023/04/20 08:04:15;;;;;;;12.05;8.70;;;10.40;99.90;;;;;;5108763;28;20156;-39
2023/04/20 08:06:40;;;;;;;13.05;8.48;;;10.50;99.90;;;;;;5109145;28;20512;-38
2023/04/20 08:09:06;;;;;;;11.60;8.40;;;10.60;99.90;;;;;;5109012;28;20026;-38
2023/04/20 08:11:32;;;;;;;11.48;7.88;;;10.80;99.90;;;;;;5105146;28;20066;-39
2023/04/20 08:13:58;;;;;;;11.07;8.20;;;10.70;99.90;;;;;;5105202;28;20308;-39
2023/04/20 08:16:24;;;;;;;10.23;7.70;;;10.80;99.90;;;;;;5109140;28;20514;-38
2023/04/20 08:18:49;;;;;;;10.57;8.30;;;10.90;99.90;;;;;;5108282;28;20485;-39
2023/04/20 08:21:15;;;;;;;14.52;8.80;;;10.80;99.90;;;;;;5089852;28;20028;-39
2023/04/20 08:23:41;;;;;;;11.60;8.40;;;10.70;99.90;;;;;;5108957;28;20118;-38
2023/04/20 08:26:07;;;;;;;12.85;9.27;;;10.80;99.90;;;;;;5108680;28;20031;-38
2023/04/20 08:28:32;;;;;;;9.95;7.38;;;10.90;99.90;;;;;;5090174;28;20035;-38
2023/04/20 08:30:58;;;;;;;12.52;7.72;;;10.90;99.90;;;;;;5089938;28;20035;-39
2023/04/20 08:33:23;;;;;;;12.00;8.38;;;10.70;99.90;;;;;;5116200;27;20102;-39
2023/04/20 08:35:50;;;;;;;12.43;9.00;;;10.70;99.90;;;;;;5108566;28;20039;-38
2023/04/20 08:38:16;;;;;;;13.52;8.55;;;10.60;99.90;;;;;;5108337;28;20102;-39
2023/04/20 08:40:42;;;;;;;12.93;8.30;;;10.60;99.90;;;;;;5107689;28;20103;-39
2023/04/20 08:43:08;;;;;;;9.50;7.75;;;10.70;99.90;;;;;;5107561;28;20031;-39
2023/04/20 08:45:34;;;;;;;12.25;8.13;;;10.80;99.90;;;;;;5108480;28;20397;-38
2023/04/20 08:48:05;;;;;;;12.65;8.32;;;10.80;99.90;;;;;;5107893;28;20028;-39
2023/04/20 08:50:31;;;;;;;11.23;8.43;;;10.80;99.90;;;;;;5107906;28;20039;-38
2023/04/20 08:52:57;;;;;;;9.65;7.78;;;11.00;99.90;;;;;;5108505;28;20023;-38
2023/04/20 08:55:23;;;;;;;11.80;8.80;;;11.20;99.90;;;;;;5108045;28;20503;-39
2023/04/20 08:57:49;;;;;;;13.05;8.50;;;11.20;99.90;;;;;;5107688;28;20027;-43
2023/04/20 09:00:15;;;;;;;10.90;8.00;;;11.20;99.90;;;;;;5108306;28;20028;-38
2023/04/20 09:02:51;;;;;;;14.23;8.75;;;11.20;99.90;;;;;;5115530;27;20545;-39
2023/04/20 09:05:27;;;;;;;13.57;9.32;;;11.20;99.90;;;;;;5107662;28;20108;-38
2023/04/20 09:07:55;;;;;;;14.13;8.88;;;11.00;99.90;;;;;;5087668;28;20032;-38
2023/04/20 09:10:23;;;;;;;10.77;8.05;;;11.00;99.90;;;;;;5105243;28;20031;-38
2023/04/20 09:12:50;;;;;;;13.50;8.43;;;11.10;99.90;;;;;;5103613;28;20032;-38
2023/04/20 09:15:30;;;;;;;13.73;8.20;;;11.30;99.90;;;;;;5106979;28;20110;-38
2023/04/20 09:17:56;;;;;;;13.68;8.23;;;11.80;99.90;;;;;;5106874;28;20397;-38
2023/04/20 09:20:32;;;;;;;9.20;7.28;;;13.80;99.50;;;;;;5106531;28;20259;-38
2023/04/20 09:23:14;;;;;;;8.90;6.80;;;16.10;96.20;;;;;;5107383;28;20059;-39
2023/04/20 09:25:41;;;;;;;8.93;7.10;;;18.50;90.00;;;;;;5107794;28;20080;-39
2023/04/20 09:28:07;;;;;;;7.70;6.13;;;20.50;73.70;;;;;;5107530;28;20447;-39
2023/04/20 09:30:40;;;;;;;6.43;5.80;;;22.20;70.50;;;;;;5107395;28;20457;-39
2023/04/20 09:33:07;;;;;;;7.82;6.50;;;21.90;61.00;;;;;;5115012;27;20080;-39
2023/04/20 09:35:33;;;;;;;7.15;6.43;;;21.50;60.30;;;;;;5108187;28;20031;-39
2023/04/20 09:37:59;;;;;;;7.32;6.53;;;20.20;61.60;;;;;;5107664;28;20054;-38
2023/04/20 09:40:26;;;;;;;7.32;6.57;;;18.50;65.00;;;;;;5107350;28;20494;-38
2023/04/20 09:42:53;;;;;;;7.25;6.32;;;18.10;67.20;;;;;;5106777;28;20261;-38
2023/04/20 09:45:20;;;;;;;7.05;6.25;;;19.50;65.50;;;;;;5106780;28;20034;-38
2023/04/20 09:47:46;;;;;;;7.30;5.57;;;21.20;61.00;;;;;;5106758;28;20043;-38
2023/04/20 09:50:12;;;;;;;6.25;5.32;;;22.60;58.50;;;;;;5107220;28;20032;-39
2023/04/20 09:52:38;;;;;;;6.65;5.13;;;23.00;58.50;;;;;;5106939;28;20076;-39
2023/04/20 09:55:08;;;;;;;6.65;5.85;;;24.00;56.90;;;;;;5107491;28;20023;-39
2023/04/20 09:57:34;;;;;;;7.50;6.63;;;23.80;52.50;;;;;;5106586;28;20103;-39
2023/04/20 10:00:00;;;;;;;7.50;6.45;;;22.20;55.00;;;;;;5106473;28;20752;-40
2023/04/20 10:02:26;;;;;;;6.95;6.25;;;20.60;57.60;;;;;;5114808;27;20027;-38
2023/04/20 10:04:56;;;;;;;7.50;6.65;;;19.70;60.80;;;;;;5107215;28;20011;-38
2023/04/20 10:07:26;;;;;;;7.57;6.70;;;19.10;60.00;;;;;;5107575;28;20028;-38
2023/04/20 10:10:06;;;;;;;8.02;7.13;;;18.20;62.70;;;;;;5107122;28;20369;-38
2023/04/20 10:12:32;;;;;;;9.23;7.22;;;17.80;64.90;;;;;;5103176;27;20506;-38
2023/04/20 10:14:59;;;;;;;7.95;6.95;;;18.80;65.50;;;;;;5106690;28;20031;-39
2023/04/20 10:17:30;;;;;;;9.43;7.65;;;20.00;61.90;;;;;;5106566;28;20023;-39
2023/04/20 10:19:55;;;;;;;9.13;6.82;;;19.40;61.70;;;;;;5107112;28;20047;-38
2023/04/20 10:22:31;;;;;;;7.72;6.93;;;18.70;62.50;;;;;;5106558;28;20591;-39
2023/04/20 10:24:57;;;;;;;8.45;7.10;;;18.30;65.10;;;;;;5105617;28;20682;-39
2023/04/20 10:27:23;;;;;;;9.63;7.75;;;19.30;64.00;;;;;;5098517;28;20042;-39
2023/04/20 10:29:48;;;;;;;11.45;7.53;;;19.50;61.90;;;;;;5106396;28;20122;-39
2023/04/20 10:32:25;;;;;;;8.73;7.07;;;18.80;63.10;;;;;;5118110;27;20023;-38
2023/04/20 10:35:05;;;;;;;9.40;6.85;;;18.20;64.40;;;;;;5110743;28;20405;-38
2023/04/20 10:37:31;;;;;;;11.85;7.57;;;17.50;67.90;;;;;;5110479;28;20030;-38
2023/04/20 10:39:57;;;;;;;10.20;7.38;;;17.20;68.90;;;;;;5110552;28;20102;-38
2023/04/20 10:42:25;;;;;;;9.05;7.25;;;16.50;68.30;;;;;;5110165;28;20512;-38
2023/04/20 10:44:54;;;;;;;12.07;7.53;;;16.40;70.50;;;;;;5110615;28;20065;-38
2023/04/20 10:47:31;;;;;;;8.77;7.07;;;17.10;70.20;;;;;;5110542;28;20028;-38
2023/04/20 10:50:11;;;;;;;8.77;6.78;;;18.70;65.50;;;;;;5109149;28;20038;-38
2023/04/20 10:52:39;;;;;;;6.22;5.60;;;20.60;65.00;;;;;;5110899;28;20031;-39
2023/04/20 10:55:06;;;;;;;6.75;6.03;;;20.80;61.30;;;;;;5111125;28;20115;-39
2023/04/20 10:57:32;;;;;;;8.57;7.07;;;22.60;58.00;;;;;;5110431;28;20127;-39
2023/04/20 10:59:58;;;;;;;7.90;6.72;;;22.40;56.00;;;;;;5110290;28;20019;-39
2023/04/20 11:02:24;;;;;;;8.70;6.78;;;22.10;55.60;;;;;;5116785;27;20491;-39
2023/04/20 11:04:51;;;;;;;7.55;6.30;;;22.40;56.70;;;;;;5110349;28;20381;-39
2023/04/20 11:07:19;;;;;;;7.45;5.57;;;22.00;56.40;;;;;;5110273;28;20031;-39
2023/04/20 11:09:45;;;;;;;6.60;5.05;;;21.00;56.90;;;;;;5109901;28;20031;-38
2023/04/20 11:12:11;;;;;;;8.38;6.30;;;19.80;59.20;;;;;;5117627;27;20023;-38
2023/04/20 11:14:49;;;;;;;9.45;6.55;;;18.90;60.90;;;;;;5130421;27;20034;-38
2023/04/20 11:17:14;;;;;;;7.90;5.95;;;18.10;60.80;;;;;;5130174;27;20494;-38
2023/04/20 11:19:40;;;;;;;7.57;6.40;;;17.50;62.90;;;;;;5111578;27;20023;-38
2023/04/20 11:22:05;;;;;;;7.78;6.63;;;17.20;64.70;;;;;;5111392;27;20777;-38
2023/04/20 11:24:36;;;;;;;6.85;6.03;;;17.00;65.50;;;;;;5129239;28;20027;-38
2023/04/20 11:27:03;;;;;;;8.90;6.03;;;17.30;65.20;;;;;;5121985;28;20388;-39
2023/04/20 11:29:34;;;;;;;7.43;6.57;;;18.90;64.00;;;;;;5106809;28;20059;-38
2023/04/20 11:32:02;;;;;;;7.95;7.05;;;20.80;61.80;;;;;;5114341;28;20031;-39
2023/04/20 11:34:28;;;;;;;7.28;5.85;;;22.00;58.80;;;;;;5108254;28;20026;-39
2023/04/20 11:36:58;;;;;;;6.88;5.65;;;21.90;58.20;;;;;;5108917;28;20102;-39
2023/04/20 11:39:31;;;;;;;6.72;5.53;;;21.80;57.00;;;;;;5108720;28;20469;-39
2023/04/20 11:41:56;;;;;;;8.23;5.40;;;21.40;59.00;;;;;;5089652;28;20373;-38
2023/04/20 11:44:24;;;;;;;6.72;5.55;;;20.50;58.50;;;;;;5108787;28;20035;-38
2023/04/20 11:46:53;;;;;;;7.15;6.05;;;19.70;58.40;;;;;;5089944;28;20043;-38
2023/04/20 11:49:19;;;;;;;7.68;5.93;;;18.80;60.70;;;;;;5090036;28;20575;-39
2023/04/20 11:51:45;;;;;;;6.80;5.65;;;17.70;61.70;;;;;;5108754;28;20027;-38
2023/04/20 11:54:11;;;;;;;9.95;7.28;;;17.10;65.80;;;;;;5108468;28;20098;-38
2023/04/20 11:56:37;;;;;;;13.30;8.63;;;16.50;66.80;;;;;;5108291;28;20502;-38
2023/04/20 11:59:03;;;;;;;11.43;7.93;;;15.80;69.30;;;;;;5108224;28;20055;-38
2023/04/20 12:01:29;;;;;;;11.07;6.93;;;15.50;71.60;;;;;;5109237;28;20035;-38
2023/04/20 12:03:55;;;;;;;12.38;7.32;;;15.00;72.00;;;;;;5112686;28;20034;-38
2023/04/20 12:06:20;;;;;;;9.93;7.63;;;15.00;72.00;;;;;;5089470;28;20416;-38
2023/04/20 12:08:49;;;;;;;11.48;7.85;;;15.20;73.10;;;;;;5107642;28;20031;-38
2023/04/20 12:11:15;;;;;;;8.75;7.35;;;15.10;71.80;;;;;;5107458;28;20040;-38
2023/04/20 12:13:41;;;;;;;9.27;7.13;;;14.90;72.30;;;;;;5099796;28;20042;-38
2023/04/20 12:16:07;;;;;;;11.98;8.27;;;14.60;74.10;;;;;;5108198;28;20054;-38
2023/04/20 12:18:33;;;;;;;12.45;8.98;;;14.30;74.30;;;;;;5108192;28;20332;-38
2023/04/20 12:20:59;;;;;;;12.68;8.52;;;14.00;75.50;;;;;;5107912;28;20445;-47
2023/04/20 12:23:25;;;;;;;11.27;8.07;;;13.90;77.20;;;;;;5070207;28;1039034;-49
2023/04/20 12:25:51;;;;;;;12.27;7.28;;;13.70;77.50;;;;;;5108012;28;20092;-46
2023/04/20 12:28:16;;;;;;;12.85;8.15;;;13.60;77.70;;;;;;5107797;28;20533;-45
2023/04/20 12:30:42;;;;;;;11.63;8.18;;;13.60;77.70;;;;;;5107912;28;20072;-45
2023/04/20 12:33:07;;;;;;;14.85;9.00;;;13.40;77.90;;;;;;5115051;27;20031;-47
2023/04/20 12:35:33;;;;;;;10.00;7.55;;;13.40;79.40;;;;;;5108653;28;20377;-46
2023/04/20 12:37:58;;;;;;;9.88;7.95;;;13.30;79.60;;;;;;5108725;28;20496;-48